Dallas, Texas
Current Conditions -  °F | °C
As of 2:53 PM on Monday 24 Nov 2014 (Local Time) from KDAL Reporting Station
Broken Clouds Broken Clouds  
Wind Chill: 60°   Ceiling: 25000
Heat Index: 60°   Visibility: 10mi
Dew Point: 24°   Wind: 8mph
Humidity: 25%   Direction: 290°WNW
Pressure: 30.05"   Gusts: NA
Location:  32.78°N, 96.79°W
Report Text: KDAL 242053Z 29007KT 10SM BKN250 16/M04 A3005 RMK AO2 SLP172 T01561044 56006
Loading
Personal Weather Stations






























Interactive Weather Map New forecast layout! Learn more

10-Day Weather Forecast

Advertisements
Track Severe Weather on mobile